Time;durP1;ratioP1;P1;durP2;ratioP2;P2;SDS_P1;SDS_P2;PMS_P1;PMS_P2;Temp;Humidity;BMP_temperature;BMP_pressure;BME280_temperature;BME280_humidity;BME280_pressure;Samples;Min_cycle;Max_cycle;Signal;HPM_P1;HPM_P2
2023/05/28 00:05:46;;;;;;;16.30;14.07;;;11.70;99.90;;;;;;2609219;54;20493;-73
2023/05/28 00:11:33;;;;;;;15.80;14.10;;;11.50;99.90;;;;;;2609680;54;20146;-71
2023/05/28 00:17:22;;;;;;;14.73;13.47;;;11.40;99.90;;;;;;2608937;54;20123;-72
2023/05/28 00:23:09;;;;;;;14.07;12.87;;;11.20;99.90;;;;;;2613266;54;20419;-73
2023/05/28 00:28:57;;;;;;;16.10;11.97;;;11.10;99.90;;;;;;2614744;54;20150;-71
2023/05/28 00:38:35;;;;;;;16.70;11.60;;;11.20;99.90;;;;;;2614735;39;20466;-71
2023/05/28 00:44:23;;;;;;;15.33;12.80;;;11.20;99.90;;;;;;2611339;54;20398;-71
2023/05/28 00:50:13;;;;;;;23.13;13.50;;;11.00;99.90;;;;;;2613031;54;20311;-72
2023/05/28 00:56:02;;;;;;;18.13;13.27;;;10.70;99.90;;;;;;2614231;54;20499;-73
2023/05/28 01:01:49;;;;;;;14.03;11.60;;;10.50;99.90;;;;;;2612886;54;20359;-70
2023/05/28 01:07:38;;;;;;;15.90;13.27;;;10.40;99.90;;;;;;2613695;54;20231;-71
2023/05/28 01:13:25;;;;;;;15.20;13.60;;;10.50;99.90;;;;;;2606467;54;20382;-71
2023/05/28 01:19:18;;;;;;;17.40;13.90;;;10.20;99.90;;;;;;2604954;54;20142;-71
2023/05/28 01:25:10;;;;;;;15.60;12.73;;;10.10;99.90;;;;;;2607276;54;20444;-70
2023/05/28 01:30:58;;;;;;;14.77;12.63;;;10.10;99.90;;;;;;2606245;54;20374;-71
2023/05/28 01:34:03;;;;;;;17.03;12.83;;;10.10;99.90;;;;;;2605718;54;20439;-70
2023/05/28 01:36:35;;;;;;;22.80;13.37;;;10.20;99.90;;;;;;2606188;47;20166;-71
2023/05/28 01:42:24;;;;;;;17.17;12.87;;;10.00;99.90;;;;;;2608931;54;21244;-71
2023/05/28 01:48:12;;;;;;;16.43;12.90;;;10.00;99.90;;;;;;2612175;54;20356;-71
2023/05/28 01:53:59;;;;;;;15.50;13.67;;;9.90;99.90;;;;;;2611252;39;20875;-71
2023/05/28 01:59:47;;;;;;;16.40;13.70;;;9.90;99.90;;;;;;2608298;54;20150;-70
2023/05/28 02:05:35;;;;;;;18.10;12.10;;;9.80;99.90;;;;;;2608302;54;20562;-71
2023/05/28 02:11:23;;;;;;;25.13;13.17;;;9.70;99.90;;;;;;2609620;54;20150;-71
2023/05/28 02:17:12;;;;;;;16.70;13.20;;;9.60;99.90;;;;;;2607509;54;20142;-71
2023/05/28 02:22:59;;;;;;;18.90;13.73;;;9.50;99.90;;;;;;2609137;54;20459;-71
2023/05/28 02:28:47;;;;;;;17.93;13.43;;;9.60;99.90;;;;;;2609422;54;20778;-76
2023/05/28 02:38:38;;;;;;;16.20;14.10;;;9.60;99.90;;;;;;2609309;39;20798;-75
2023/05/28 02:44:25;;;;;;;17.50;14.00;;;9.30;99.90;;;;;;2609807;54;20399;-76
2023/05/28 02:50:13;;;;;;;23.47;13.57;;;9.40;99.90;;;;;;2608998;54;20161;-71
2023/05/28 02:56:01;;;;;;;14.17;12.50;;;9.30;99.90;;;;;;2608030;54;20183;-71
2023/05/28 03:01:48;;;;;;;15.87;12.70;;;9.30;99.90;;;;;;2608451;54;20744;-74
2023/05/28 03:07:36;;;;;;;14.60;11.30;;;9.10;99.90;;;;;;2608664;54;20150;-74
2023/05/28 03:13:24;;;;;;;15.77;12.17;;;9.00;99.90;;;;;;2607760;54;20708;-74
2023/05/28 03:19:12;;;;;;;16.80;12.07;;;9.30;99.90;;;;;;2607200;54;20379;-75
2023/05/28 03:25:00;;;;;;;16.57;13.00;;;9.20;99.90;;;;;;2608077;54;20210;-74
2023/05/28 03:30:47;;;;;;;14.90;13.33;;;8.80;99.90;;;;;;2608277;54;20131;-74
2023/05/28 03:34:08;;;;;;;15.97;13.30;;;8.80;99.90;;;;;;2608123;54;20398;-74
2023/05/28 03:36:34;;;;;;;19.43;12.80;;;8.80;99.90;;;;;;2607091;47;20171;-74
2023/05/28 03:42:21;;;;;;;15.73;12.37;;;9.20;99.90;;;;;;2606805;54;20151;-74
2023/05/28 03:48:09;;;;;;;15.90;12.87;;;9.10;99.90;;;;;;2609279;54;20135;-74
2023/05/28 03:53:57;;;;;;;13.10;11.80;;;9.30;99.90;;;;;;2610999;54;20122;-74
2023/05/28 03:59:44;;;;;;;16.30;11.90;;;9.10;99.90;;;;;;2609178;54;20230;-73
2023/05/28 04:05:33;;;;;;;16.57;12.87;;;9.20;99.90;;;;;;2609211;54;20166;-74
2023/05/28 04:08:18;;;;;;;15.90;12.17;;;9.30;99.90;;;;;;2608073;54;20989;-73
2023/05/28 04:10:43;;;;;;;16.47;11.80;;;9.30;99.90;;;;;;2608095;54;20410;-74
2023/05/28 04:16:31;;;;;;;18.93;10.10;;;9.40;99.90;;;;;;2608463;54;20495;-74
2023/05/28 04:22:20;;;;;;;20.07;12.53;;;9.80;99.90;;;;;;2608513;54;20134;-73
2023/05/28 04:28:08;;;;;;;18.40;12.33;;;9.70;99.90;;;;;;2609263;54;20402;-74
2023/05/28 04:33:56;;;;;;;16.80;11.93;;;9.90;99.90;;;;;;2609806;54;20122;-74
2023/05/28 04:39:44;;;;;;;16.23;12.40;;;10.20;99.90;;;;;;2609595;54;20390;-73
2023/05/28 04:45:32;;;;;;;17.23;12.40;;;10.70;99.90;;;;;;2609087;39;20558;-74
2023/05/28 04:51:20;;;;;;;15.90;13.40;;;11.20;99.90;;;;;;2607932;54;20134;-73
2023/05/28 04:57:08;;;;;;;15.40;12.80;;;11.70;99.90;;;;;;2608361;54;20830;-73
2023/05/28 05:02:57;;;;;;;11.10;10.20;;;12.10;99.90;;;;;;2609806;54;20130;-74
2023/05/28 05:08:44;;;;;;;11.07;10.20;;;12.60;99.90;;;;;;2610106;54;20395;-74
2023/05/28 05:14:32;;;;;;;12.60;11.40;;;13.10;99.90;;;;;;2608611;54;20130;-75
2023/05/28 05:20:20;;;;;;;13.30;12.20;;;13.40;99.90;;;;;;2611277;39;20603;-74
2023/05/28 05:26:09;;;;;;;14.53;13.40;;;14.10;99.90;;;;;;2608688;54;20154;-73
2023/05/28 05:31:57;;;;;;;13.70;12.70;;;14.10;99.90;;;;;;2611237;39;20767;-74
2023/05/28 05:41:10;;;;;;;13.07;12.03;;;14.50;99.90;;;;;;2609968;54;20491;-72
2023/05/28 05:46:58;;;;;;;13.40;12.50;;;15.10;99.90;;;;;;2608744;54;20403;-75
2023/05/28 05:52:46;;;;;;;14.03;12.93;;;15.30;99.90;;;;;;2608743;54;20161;-74
2023/05/28 05:58:34;;;;;;;16.00;14.80;;;15.70;99.90;;;;;;2608960;31;20726;-74
2023/05/28 06:04:22;;;;;;;15.40;14.40;;;16.00;99.90;;;;;;2607938;54;20363;-75
2023/05/28 06:10:11;;;;;;;16.10;14.87;;;16.10;99.90;;;;;;2607548;54;20158;-74
2023/05/28 06:15:59;;;;;;;16.70;15.60;;;16.20;99.90;;;;;;2608154;54;20411;-74
2023/05/28 06:21:47;;;;;;;16.07;15.07;;;16.80;99.90;;;;;;2609925;54;20130;-80
2023/05/28 06:27:36;;;;;;;17.30;16.00;;;16.90;99.90;;;;;;2608463;46;20198;-75
2023/05/28 06:33:24;;;;;;;15.90;14.90;;;17.50;99.90;;;;;;2608499;54;20512;-76
2023/05/28 06:36:28;;;;;;;16.67;15.57;;;17.80;99.90;;;;;;2610217;54;21385;-76
2023/05/28 06:42:27;;;;;;;16.63;15.43;;;17.80;99.90;;;;;;2608676;54;20993;-74
2023/05/28 06:48:15;;;;;;;16.83;15.47;;;17.30;99.90;;;;;;2609993;54;20488;-75
2023/05/28 06:54:03;;;;;;;16.60;15.60;;;17.50;99.90;;;;;;2609193;54;20206;-74
2023/05/28 06:59:51;;;;;;;17.40;16.30;;;17.90;99.90;;;;;;2611256;54;20137;-74
2023/05/28 07:05:39;;;;;;;17.90;16.70;;;18.70;83.60;;;;;;2608277;54;20125;-75
2023/05/28 07:11:27;;;;;;;19.10;17.90;;;18.80;78.60;;;;;;2608406;39;21698;-75
2023/05/28 07:17:14;;;;;;;18.93;17.43;;;18.90;66.20;;;;;;2609924;54;20736;-74
2023/05/28 07:23:03;;;;;;;17.40;16.27;;;19.30;53.00;;;;;;2612409;39;20547;-75
2023/05/28 07:28:51;;;;;;;17.73;16.73;;;19.20;46.90;;;;;;2608969;54;20414;-75
2023/05/28 07:34:39;;;;;;;17.50;16.30;;;19.40;43.30;;;;;;2611642;54;20267;-74
2023/05/28 07:37:55;;;;;;;17.07;15.97;;;19.30;42.90;;;;;;2610466;54;20399;-76
2023/05/28 07:40:21;;;;;;;16.80;15.90;;;19.90;39.50;;;;;;2611972;54;20423;-75
2023/05/28 07:46:09;;;;;;;17.17;16.17;;;20.10;36.50;;;;;;2614080;54;20411;-75
2023/05/28 07:51:57;;;;;;;16.17;15.17;;;20.60;35.30;;;;;;2611982;47;20603;-75
2023/05/28 07:57:45;;;;;;;15.63;14.83;;;20.90;32.10;;;;;;2611774;54;20138;-74
2023/05/28 08:03:33;;;;;;;19.20;18.30;;;20.70;31.70;;;;;;2610610;54;20150;-73
2023/05/28 08:09:20;;;;;;;15.70;14.90;;;21.40;26.60;;;;;;2613317;39;20546;-72
2023/05/28 08:15:09;;;;;;;16.57;15.43;;;21.20;28.90;;;;;;2612348;54;20133;-74
2023/05/28 08:20:57;;;;;;;15.90;15.10;;;21.50;24.70;;;;;;2611219;31;20840;-73
2023/05/28 08:26:45;;;;;;;15.67;14.77;;;22.20;22.40;;;;;;2611357;54;20641;-74
2023/05/28 08:32:32;;;;;;;16.63;15.70;;;22.20;22.00;;;;;;2613904;39;20527;-75
2023/05/28 08:42:27;;;;;;;15.83;15.00;;;22.80;17.70;;;;;;2613086;54;20387;-74
2023/05/28 08:48:14;;;;;;;15.37;14.40;;;23.00;16.70;;;;;;2613030;54;20382;-74
2023/05/28 08:54:03;;;;;;;15.27;14.47;;;23.00;15.10;;;;;;2612428;54;20258;-74
2023/05/28 08:59:52;;;;;;;15.80;14.80;;;23.50;13.20;;;;;;2613262;54;20371;-75
2023/05/28 09:05:40;;;;;;;15.60;14.60;;;24.40;12.30;;;;;;2612600;54;20391;-75
2023/05/28 09:11:28;;;;;;;15.50;14.70;;;24.00;12.10;;;;;;2612051;54;20125;-73
2023/05/28 09:17:15;;;;;;;15.47;14.60;;;24.20;12.70;;;;;;2611788;54;20166;-74
2023/05/28 09:23:06;;;;;;;15.57;14.70;;;25.00;10.20;;;;;;2609570;54;20154;-75
2023/05/28 09:28:54;;;;;;;14.80;14.20;;;24.50;10.80;;;;;;2608609;39;20823;-74
2023/05/28 09:34:45;;;;;;;15.40;14.40;;;24.80;8.60;;;;;;2612845;54;20185;-75
2023/05/28 09:40:37;;;;;;;14.70;13.87;;;25.20;8.70;;;;;;2612611;54;20487;-75
2023/05/28 09:46:30;;;;;;;15.40;14.60;;;25.20;7.40;;;;;;2611878;54;20399;-77
2023/05/28 09:52:20;;;;;;;14.53;13.83;;;24.80;8.50;;;;;;2610425;54;20915;-76
2023/05/28 09:58:10;;;;;;;14.50;13.70;;;25.10;6.90;;;;;;2610308;39;20801;-78
2023/05/28 10:04:14;;;;;;;14.80;14.10;;;25.30;7.80;;;;;;2611010;54;20503;-76
2023/05/28 10:10:02;;;;;;;15.00;14.20;;;24.80;4.10;;;;;;2608999;54;20435;-75
2023/05/28 10:15:51;;;;;;;14.10;13.50;;;25.80;3.30;;;;;;2612839;54;20825;-77
2023/05/28 10:21:39;;;;;;;15.13;14.37;;;25.60;4.00;;;;;;2614576;54;20550;-77
2023/05/28 10:31:06;;;;;;;14.67;13.97;;;25.90;3.00;;;;;;2612393;54;20390;-76
2023/05/28 10:36:54;;;;;;;15.00;14.10;;;25.60;2.80;;;;;;2611143;54;20411;-72
2023/05/28 10:42:42;;;;;;;15.07;14.37;;;26.20;1.00;;;;;;2613662;54;20166;-77
2023/05/28 10:48:30;;;;;;;15.03;14.30;;;25.20;1.70;;;;;;2620158;39;20494;-85
2023/05/28 11:01:12;;;;;;;15.73;14.90;;;25.10;2.10;;;;;;2617004;54;20387;-79
2023/05/28 11:07:02;;;;;;;14.73;13.77;;;25.60;3.00;;;;;;2614451;54;20967;-84
2023/05/28 11:21:52;;;;;;;14.40;13.60;;;25.80;2.90;;;;;;2614455;54;20422;-71
2023/05/28 11:27:41;;;;;;;14.93;13.90;;;26.20;1.00;;;;;;2613925;38;20848;-69
2023/05/28 11:33:29;;;;;;;12.67;11.87;;;26.10;1.00;;;;;;2615333;54;20402;-71
2023/05/28 11:39:17;;;;;;;13.27;12.37;;;26.70;1.00;;;;;;2617512;54;20398;-71
2023/05/28 11:45:06;;;;;;;12.13;11.33;;;26.60;1.00;;;;;;2613849;54;20211;-70
2023/05/28 11:51:00;;;;;;;12.43;11.63;;;25.60;1.00;;;;;;2616734;54;20908;-71
2023/05/28 11:56:50;;;;;;;14.43;13.40;;;24.70;1.00;;;;;;2616295;54;20402;-71
2023/05/28 12:09:11;;;;;;;13.80;12.80;;;26.10;1.00;;;;;;2613880;54;20346;-71
2023/05/28 12:15:02;;;;;;;13.00;12.20;;;26.50;1.00;;;;;;2615242;54;20542;-72
2023/05/28 12:20:50;;;;;;;12.83;12.10;;;25.40;1.00;;;;;;2616157;54;20432;-72
2023/05/28 12:26:38;;;;;;;16.20;15.13;;;25.60;1.00;;;;;;2616387;38;20514;-71
2023/05/28 12:32:25;;;;;;;13.37;12.37;;;26.20;1.00;;;;;;2613846;54;20126;-71
2023/05/28 12:38:14;;;;;;;12.93;12.23;;;25.10;1.00;;;;;;2614459;54;20173;-72
2023/05/28 12:44:02;;;;;;;14.17;13.03;;;25.20;1.00;;;;;;2614228;54;20480;-71
2023/05/28 12:49:49;;;;;;;13.70;12.80;;;25.50;1.00;;;;;;2614148;54;20121;-71
2023/05/28 12:55:37;;;;;;;16.97;15.37;;;26.20;1.00;;;;;;2614084;54;20177;-73
2023/05/28 13:01:25;;;;;;;15.77;14.47;;;26.70;1.00;;;;;;2611532;54;20114;-71
2023/05/28 13:07:13;;;;;;;13.77;12.87;;;27.00;1.00;;;;;;2612324;54;20147;-71
2023/05/28 13:13:00;;;;;;;13.57;12.70;;;27.10;1.00;;;;;;2611903;54;20150;-71
2023/05/28 13:16:01;;;;;;;13.47;12.40;;;26.80;1.00;;;;;;2612596;47;20392;-71
2023/05/28 13:18:27;;;;;;;13.30;12.40;;;27.20;1.00;;;;;;2610180;39;20552;-71
2023/05/28 13:24:15;;;;;;;33.50;30.10;;;27.10;1.00;;;;;;2609089;54;20127;-71
2023/05/28 13:30:03;;;;;;;24.30;20.00;;;27.60;1.00;;;;;;2608680;54;20379;-70
2023/05/28 13:35:51;;;;;;;31.57;28.67;;;27.60;1.00;;;;;;2609218;54;20363;-71
2023/05/28 13:41:40;;;;;;;308.17;222.00;;;26.70;1.00;;;;;;2608322;54;20158;-71
2023/05/28 13:47:27;;;;;;;451.83;255.20;;;26.90;1.00;;;;;;2608409;54;20371;-71
2023/05/28 13:53:15;;;;;;;14.27;13.37;;;27.10;1.00;;;;;;2611075;54;20129;-71
2023/05/28 13:59:03;;;;;;;14.20;13.30;;;27.30;1.00;;;;;;2614144;39;20603;-71
2023/05/28 14:04:51;;;;;;;13.63;12.43;;;26.90;1.00;;;;;;2610694;54;20166;-71
2023/05/28 14:10:40;;;;;;;21.90;19.83;;;26.60;1.00;;;;;;2614246;54;20660;-71
2023/05/28 14:20:34;;;;;;;15.70;14.40;;;26.80;1.00;;;;;;2609250;47;20956;-71
2023/05/28 14:26:21;;;;;;;16.43;15.23;;;26.90;1.00;;;;;;2611142;54;20443;-71
2023/05/28 14:32:09;;;;;;;21.43;19.67;;;26.90;1.00;;;;;;2611038;54;20285;-71
2023/05/28 14:37:57;;;;;;;65.93;56.70;;;26.20;1.00;;;;;;2609555;39;20778;-71
2023/05/28 14:43:45;;;;;;;26.40;24.00;;;26.00;1.00;;;;;;2610141;54;20115;-71
2023/05/28 14:49:33;;;;;;;16.97;15.57;;;25.70;1.00;;;;;;2610079;54;20384;-72
2023/05/28 14:55:21;;;;;;;26.53;23.90;;;25.90;1.00;;;;;;2610357;54;20455;-71
2023/05/28 15:01:08;;;;;;;16.33;15.13;;;25.20;1.00;;;;;;2611253;54;20126;-71
2023/05/28 15:07:00;;;;;;;13.43;12.67;;;24.90;1.00;;;;;;2610599;54;20243;-71
2023/05/28 15:12:47;;;;;;;15.60;14.57;;;25.60;1.00;;;;;;2610215;54;20421;-71
2023/05/28 15:16:01;;;;;;;14.70;13.70;;;25.50;1.00;;;;;;2609532;31;20875;-71
2023/05/28 15:18:27;;;;;;;18.83;17.40;;;26.00;1.00;;;;;;2610911;54;20305;-72
2023/05/28 15:24:15;;;;;;;14.30;13.30;;;25.80;1.00;;;;;;2610395;54;20652;-71
2023/05/28 15:30:03;;;;;;;12.83;11.83;;;26.00;1.00;;;;;;2611448;54;20125;-71
2023/05/28 15:35:51;;;;;;;12.37;11.67;;;26.60;1.00;;;;;;2611645;54;21332;-71
2023/05/28 15:41:41;;;;;;;12.20;11.50;;;25.90;1.00;;;;;;2612512;54;20399;-71
2023/05/28 15:47:29;;;;;;;12.43;11.63;;;26.50;1.00;;;;;;2614170;54;20399;-71
2023/05/28 15:53:17;;;;;;;11.77;11.07;;;26.30;1.00;;;;;;2613195;54;20126;-71
2023/05/28 15:59:05;;;;;;;12.10;11.40;;;26.30;1.00;;;;;;2613295;54;20215;-72
2023/05/28 16:04:52;;;;;;;14.13;13.07;;;26.20;1.00;;;;;;2614052;54;20163;-71
2023/05/28 16:10:40;;;;;;;14.27;13.33;;;26.70;1.00;;;;;;2613766;54;20660;-71
2023/05/28 16:20:31;;;;;;;13.23;12.53;;;26.80;1.00;;;;;;2613889;39;20599;-73
2023/05/28 16:26:19;;;;;;;13.67;12.97;;;26.10;1.00;;;;;;2614802;39;20786;-71
2023/05/28 16:32:07;;;;;;;16.90;15.07;;;25.80;1.00;;;;;;2612200;54;20266;-71
2023/05/28 16:37:54;;;;;;;14.20;13.40;;;24.80;1.00;;;;;;2613881;54;20395;-71
2023/05/28 16:43:42;;;;;;;14.00;13.30;;;25.30;1.00;;;;;;2613485;39;20578;-72
2023/05/28 16:49:31;;;;;;;15.30;14.40;;;25.00;1.00;;;;;;2612561;54;20371;-71
2023/05/28 16:55:19;;;;;;;13.20;12.40;;;24.90;1.00;;;;;;2611969;54;20387;-71
2023/05/28 17:01:07;;;;;;;14.20;13.20;;;24.60;1.00;;;;;;2613252;54;20916;-72
2023/05/28 17:06:58;;;;;;;15.10;14.40;;;24.50;1.00;;;;;;2612843;54;20423;-71
2023/05/28 17:12:46;;;;;;;16.13;15.23;;;24.30;1.00;;;;;;2612570;54;21118;-72
2023/05/28 17:16:02;;;;;;;15.90;15.03;;;24.20;1.00;;;;;;2611012;39;21393;-71
2023/05/28 17:18:28;;;;;;;15.83;15.03;;;24.30;1.00;;;;;;2611975;54;20311;-71
2023/05/28 17:24:16;;;;;;;15.53;14.83;;;24.10;1.40;;;;;;2614282;39;20763;-71
2023/05/28 17:30:05;;;;;;;15.77;14.70;;;23.90;1.60;;;;;;2612805;54;20476;-71
2023/05/28 17:35:52;;;;;;;15.40;14.60;;;23.40;1.10;;;;;;2612517;54;20374;-71
2023/05/28 17:41:41;;;;;;;16.00;15.20;;;23.20;3.20;;;;;;2611947;54;20139;-71
2023/05/28 17:47:29;;;;;;;16.83;15.97;;;23.00;3.70;;;;;;2611865;54;20371;-71
2023/05/28 17:53:17;;;;;;;15.83;14.93;;;22.80;4.50;;;;;;2609778;54;20150;-71
2023/05/28 17:59:05;;;;;;;15.10;14.30;;;22.60;3.90;;;;;;2612407;54;20130;-72
2023/05/28 18:04:52;;;;;;;17.43;16.43;;;22.50;5.30;;;;;;2611359;54;20122;-71
2023/05/28 18:10:40;;;;;;;17.33;16.33;;;22.30;6.00;;;;;;2611104;54;20636;-72
2023/05/28 18:20:32;;;;;;;17.33;16.40;;;22.00;7.70;;;;;;2612598;54;20956;-71
2023/05/28 18:26:20;;;;;;;16.43;15.60;;;21.90;9.10;;;;;;2612279;54;20423;-71
2023/05/28 18:32:08;;;;;;;16.83;15.93;;;21.90;8.20;;;;;;2612280;54;20391;-70
2023/05/28 18:37:55;;;;;;;16.63;15.63;;;21.90;8.20;;;;;;2613444;54;20118;-71
2023/05/28 18:41:00;;;;;;;17.10;16.20;;;21.80;9.30;;;;;;2611689;54;20510;-71
2023/05/28 18:43:25;;;;;;;16.30;15.50;;;21.70;9.00;;;;;;2611740;54;20185;-71
2023/05/28 18:49:13;;;;;;;16.97;15.93;;;21.70;10.30;;;;;;2611808;54;20126;-71
2023/05/28 18:55:01;;;;;;;18.17;17.07;;;21.50;10.60;;;;;;2611978;54;20126;-72
2023/05/28 19:00:49;;;;;;;18.70;17.40;;;21.30;12.10;;;;;;2611579;54;20162;-71
2023/05/28 19:06:37;;;;;;;18.30;17.10;;;21.10;13.30;;;;;;2611078;39;20518;-71
2023/05/28 19:12:24;;;;;;;18.00;16.90;;;21.00;14.20;;;;;;2610206;54;20364;-71
2023/05/28 19:18:12;;;;;;;17.00;16.13;;;20.80;15.20;;;;;;2611009;54;20177;-71
2023/05/28 19:24:00;;;;;;;15.80;14.80;;;20.60;15.70;;;;;;2613892;54;20126;-70
2023/05/28 19:29:48;;;;;;;26.13;19.33;;;20.50;16.80;;;;;;2612338;54;20130;-71
2023/05/28 19:35:36;;;;;;;19.00;17.50;;;20.30;17.50;;;;;;2613312;54;20371;-71
2023/05/28 19:41:23;;;;;;;19.90;18.70;;;20.10;18.30;;;;;;2613873;54;20130;-71
2023/05/28 19:47:11;;;;;;;19.00;17.80;;;20.00;18.40;;;;;;2614405;46;20154;-71
2023/05/28 19:52:59;;;;;;;18.10;16.90;;;19.70;18.50;;;;;;2612102;54;20142;-70
2023/05/28 19:58:46;;;;;;;17.57;16.57;;;19.60;18.00;;;;;;2611992;39;20634;-71
2023/05/28 20:04:37;;;;;;;18.40;17.40;;;19.40;16.80;;;;;;2613861;54;20371;-71
2023/05/28 20:10:24;;;;;;;17.90;16.80;;;19.40;13.50;;;;;;2613771;54;20527;-71
2023/05/28 20:20:30;;;;;;;18.20;17.17;;;19.10;12.80;;;;;;2611058;54;20378;-71
2023/05/28 20:26:19;;;;;;;18.07;17.07;;;18.80;13.50;;;;;;2611274;54;20368;-71
2023/05/28 20:32:07;;;;;;;17.27;16.37;;;18.60;15.70;;;;;;2610403;54;20364;-71
2023/05/28 20:38:00;;;;;;;16.40;15.50;;;18.40;18.80;;;;;;2610997;54;20451;-71
2023/05/28 20:43:48;;;;;;;17.37;16.13;;;18.20;21.70;;;;;;2612739;54;20415;-71
2023/05/28 20:49:36;;;;;;;17.30;16.40;;;18.10;24.90;;;;;;2610689;54;20259;-71
2023/05/28 20:55:24;;;;;;;17.10;16.00;;;17.90;26.00;;;;;;2613215;54;20404;-70
2023/05/28 21:01:12;;;;;;;17.77;16.17;;;17.70;28.40;;;;;;2611406;54;20162;-71
2023/05/28 21:07:00;;;;;;;16.77;15.87;;;17.50;32.60;;;;;;2613038;54;20115;-70
2023/05/28 21:12:48;;;;;;;16.60;15.70;;;17.30;37.30;;;;;;2612828;39;20802;-70
2023/05/28 21:16:02;;;;;;;16.27;15.47;;;17.30;40.30;;;;;;2610583;47;20514;-71
2023/05/28 21:18:28;;;;;;;16.43;15.43;;;17.10;43.40;;;;;;2608013;47;20748;-71
2023/05/28 21:24:16;;;;;;;16.53;15.33;;;17.00;49.20;;;;;;2611513;54;20114;-71
2023/05/28 21:30:04;;;;;;;16.73;15.73;;;16.80;56.10;;;;;;2611187;54;20122;-71
2023/05/28 21:35:54;;;;;;;16.10;15.20;;;16.60;64.70;;;;;;2613019;54;20391;-71
2023/05/28 21:41:42;;;;;;;16.70;15.57;;;16.40;74.20;;;;;;2612574;54;20383;-71
2023/05/28 21:47:29;;;;;;;15.63;14.43;;;16.20;82.60;;;;;;2613731;54;20118;-71
2023/05/28 21:53:17;;;;;;;16.37;15.10;;;16.10;88.60;;;;;;2610830;54;20672;-70
2023/05/28 21:59:05;;;;;;;15.63;14.83;;;16.10;83.00;;;;;;2611059;54;20118;-71
2023/05/28 22:04:57;;;;;;;16.83;15.30;;;15.90;73.40;;;;;;2614376;54;20597;-72
2023/05/28 22:10:44;;;;;;;16.00;15.20;;;15.80;60.80;;;;;;2611602;54;20936;-70
2023/05/28 22:20:32;;;;;;;15.70;14.80;;;15.50;64.10;;;;;;2611200;39;20869;-71
2023/05/28 22:26:20;;;;;;;16.17;15.30;;;15.30;64.00;;;;;;2610165;54;20391;-71
2023/05/28 22:32:07;;;;;;;14.90;14.20;;;15.20;64.80;;;;;;2611580;39;20507;-71
2023/05/28 22:37:55;;;;;;;16.07;15.23;;;15.20;68.60;;;;;;2610644;54;20138;-71
2023/05/28 22:43:45;;;;;;;14.50;13.80;;;15.10;70.10;;;;;;2609594;54;20692;-71
2023/05/28 22:49:33;;;;;;;16.60;15.30;;;14.90;76.70;;;;;;2612027;54;20419;-71
2023/05/28 22:55:20;;;;;;;15.17;14.27;;;14.80;82.60;;;;;;2611147;54;20150;-70
2023/05/28 23:01:10;;;;;;;15.37;14.57;;;14.70;82.40;;;;;;2612889;54;20134;-71
2023/05/28 23:06:58;;;;;;;15.10;14.40;;;14.70;79.80;;;;;;2613370;54;20538;-70
2023/05/28 23:12:45;;;;;;;15.10;14.30;;;14.40;87.90;;;;;;2610662;54;20973;-72
2023/05/28 23:18:45;;;;;;;15.33;14.33;;;14.20;93.30;;;;;;2609494;54;20154;-71
2023/05/28 23:24:33;;;;;;;14.60;13.70;;;14.10;99.40;;;;;;2608868;54;20146;-70
2023/05/28 23:30:20;;;;;;;15.50;14.70;;;14.20;99.50;;;;;;2609141;54;20154;-71
2023/05/28 23:36:08;;;;;;;14.40;13.53;;;14.10;99.90;;;;;;2607842;54;20122;-70
2023/05/28 23:41:55;;;;;;;14.43;13.67;;;13.90;99.90;;;;;;2609853;39;20598;-71
2023/05/28 23:47:42;;;;;;;14.63;13.83;;;13.70;99.90;;;;;;2609104;54;20709;-69
2023/05/28 23:53:30;;;;;;;14.33;13.50;;;13.60;99.90;;;;;;2608848;54;20678;-71
2023/05/28 23:59:17;;;;;;;13.23;12.53;;;13.40;99.90;;;;;;2609551;54;20500;-70
